createdAt,value
2023-03-29T00:00:03.313Z,5.13
2023-03-29T00:02:33.762Z,5.13
2023-03-29T00:05:04.898Z,5.12
2023-03-29T00:07:35.265Z,5.11
2023-03-29T00:10:08.013Z,5.11
2023-03-29T00:12:39.588Z,5.11
2023-03-29T00:15:11.596Z,5.12
2023-03-29T00:17:41.905Z,5.12
2023-03-29T00:20:13.841Z,5.13
2023-03-29T00:22:46.678Z,5.14
2023-03-29T00:25:17.115Z,5.15
2023-03-29T00:27:47.702Z,5.15
2023-03-29T00:30:18.305Z,5.19
2023-03-29T00:32:49.085Z,5.20
2023-03-29T00:35:20.031Z,5.21
2023-03-29T00:37:53.637Z,5.22
2023-03-29T00:40:24.310Z,5.21
2023-03-29T00:42:56.125Z,5.21
2023-03-29T00:45:30.470Z,5.20
2023-03-29T00:48:06.238Z,5.19
2023-03-29T00:50:42.167Z,5.18
2023-03-29T00:53:15.858Z,5.19
2023-03-29T00:55:52.620Z,5.20
2023-03-29T00:58:28.384Z,5.19
2023-03-29T01:01:03.072Z,5.19
2023-03-29T01:03:41.522Z,5.20
2023-03-29T01:06:14.629Z,5.19
2023-03-29T01:08:51.103Z,5.19
2023-03-29T01:11:26.554Z,5.17
2023-03-29T01:14:03.650Z,5.16
2023-03-29T01:16:36.224Z,5.16
2023-03-29T01:19:08.372Z,5.15
2023-03-29T01:21:44.721Z,5.14
2023-03-29T01:24:34.312Z,5.15
2023-03-29T01:27:12.528Z,5.14
2023-03-29T01:29:47.445Z,5.13
2023-03-29T01:32:23.391Z,5.12
2023-03-29T01:34:59.558Z,5.11
2023-03-29T01:37:36.302Z,5.10
2023-03-29T01:40:07.959Z,5.09
2023-03-29T01:42:48.412Z,5.08
2023-03-29T01:45:25.412Z,5.07
2023-03-29T01:48:02.588Z,5.07
2023-03-29T01:50:44.253Z,5.05
2023-03-29T01:53:24.212Z,5.03
2023-03-29T01:55:57.290Z,5.01
2023-03-29T01:58:33.619Z,4.99
2023-03-29T02:01:10.421Z,4.98
2023-03-29T02:03:49.724Z,4.95
2023-03-29T02:06:23.749Z,4.93
2023-03-29T02:08:55.654Z,4.91
2023-03-29T02:11:29.232Z,4.89
2023-03-29T02:13:59.985Z,4.86
2023-03-29T02:16:35.402Z,4.84
2023-03-29T02:19:07.836Z,4.82
2023-03-29T02:21:48.267Z,4.80
2023-03-29T02:24:21.196Z,4.78
2023-03-29T02:26:52.573Z,4.76
2023-03-29T02:29:23.476Z,4.75
2023-03-29T02:31:59.561Z,4.73
2023-03-29T02:34:37.651Z,4.71
2023-03-29T02:37:11.721Z,4.70
2023-03-29T02:39:42.894Z,4.69
2023-03-29T02:42:14.698Z,4.69
2023-03-29T02:44:46.828Z,4.69
2023-03-29T02:47:21.877Z,4.69
2023-03-29T02:49:53.408Z,4.70
2023-03-29T02:52:27.735Z,4.69
2023-03-29T02:55:00.364Z,4.69
2023-03-29T02:57:32.426Z,4.70
2023-03-29T03:00:07.041Z,4.72
2023-03-29T03:02:37.831Z,4.74
2023-03-29T03:05:09.773Z,4.74
2023-03-29T03:07:40.559Z,4.76
2023-03-29T03:10:12.647Z,4.77
2023-03-29T03:12:42.971Z,4.78
2023-03-29T03:15:14.637Z,4.78
2023-03-29T03:17:46.444Z,4.78
2023-03-29T03:20:17.712Z,4.79
2023-03-29T03:22:49.134Z,4.80
2023-03-29T03:25:21.243Z,4.82
2023-03-29T03:27:53.186Z,4.83
2023-03-29T03:30:24.473Z,4.84
2023-03-29T03:32:55.669Z,4.84
2023-03-29T03:35:26.150Z,4.85
2023-03-29T03:37:56.472Z,4.85
2023-03-29T03:40:28.429Z,4.83
2023-03-29T03:42:58.949Z,4.82
2023-03-29T03:45:29.334Z,4.80
2023-03-29T03:48:00.009Z,4.77
2023-03-29T03:50:31.305Z,4.74
2023-03-29T03:53:01.676Z,4.71
2023-03-29T03:55:32.427Z,4.67
2023-03-29T03:58:02.820Z,4.65
2023-03-29T04:00:33.547Z,4.62
2023-03-29T04:03:06.048Z,4.59
2023-03-29T04:05:40.035Z,4.56
2023-03-29T04:08:10.796Z,4.54
2023-03-29T04:10:41.787Z,4.51
2023-03-29T04:13:12.061Z,4.47
2023-03-29T04:15:42.364Z,4.43
2023-03-29T04:18:12.965Z,4.40
2023-03-29T04:20:44.467Z,4.38
2023-03-29T04:23:15.007Z,4.36
2023-03-29T04:25:45.333Z,4.36
2023-03-29T04:28:16.258Z,4.36
2023-03-29T04:30:48.971Z,4.36
2023-03-29T04:33:19.420Z,4.37
2023-03-29T04:35:49.761Z,4.40
2023-03-29T04:38:23.146Z,4.41
2023-03-29T04:40:55.752Z,4.41
2023-03-29T04:43:26.447Z,4.42
2023-03-29T04:45:57.778Z,4.41
2023-03-29T04:48:30.193Z,4.39
2023-03-29T04:51:01.091Z,4.39
2023-03-29T04:53:31.794Z,4.39
2023-03-29T04:56:03.009Z,4.41
2023-03-29T04:58:33.613Z,4.42
2023-03-29T05:01:04.175Z,4.44
2023-03-29T05:03:35.650Z,4.46
2023-03-29T05:06:08.709Z,4.48
2023-03-29T05:08:40.065Z,4.50
2023-03-29T05:11:13.554Z,4.52
2023-03-29T05:13:44.148Z,4.54
2023-03-29T05:16:15.866Z,4.56
2023-03-29T05:18:46.691Z,4.57
2023-03-29T05:21:17.117Z,4.58
2023-03-29T05:23:47.478Z,4.59
2023-03-29T05:26:18.163Z,4.60
2023-03-29T05:28:48.797Z,4.62
2023-03-29T05:31:19.917Z,4.64
2023-03-29T05:33:51.161Z,4.66
2023-03-29T05:36:21.724Z,4.67
2023-03-29T05:38:53.279Z,4.68
2023-03-29T05:41:24.719Z,4.70
2023-03-29T05:43:55.349Z,4.72
2023-03-29T05:46:25.687Z,4.74
2023-03-29T05:48:56.041Z,4.77
2023-03-29T05:51:26.537Z,4.80
2023-03-29T05:53:56.889Z,4.82
2023-03-29T05:56:27.972Z,4.83
2023-03-29T05:58:58.633Z,4.85
2023-03-29T06:01:29.717Z,4.88
2023-03-29T06:04:00.892Z,4.93
2023-03-29T06:06:37.906Z,4.96
2023-03-29T06:09:08.353Z,4.99
2023-03-29T06:11:39.304Z,5.02
2023-03-29T06:14:10.303Z,5.06
2023-03-29T06:16:42.863Z,5.09
2023-03-29T06:19:16.064Z,5.14
2023-03-29T06:21:47.262Z,5.19
2023-03-29T06:24:17.645Z,5.23
2023-03-29T06:26:48.007Z,5.26
2023-03-29T06:29:18.826Z,5.30
2023-03-29T06:31:49.713Z,5.35
2023-03-29T06:34:21.685Z,5.38
2023-03-29T06:36:52.956Z,5.42
2023-03-29T06:39:23.428Z,5.47
2023-03-29T06:41:55.359Z,5.52
2023-03-29T06:44:28.337Z,5.57
2023-03-29T06:46:58.637Z,5.59
2023-03-29T06:49:29.255Z,5.62
2023-03-29T06:52:00.433Z,5.65
2023-03-29T06:54:31.304Z,5.69
2023-03-29T06:57:02.010Z,5.74
2023-03-29T06:59:33.433Z,5.79
2023-03-29T07:02:03.873Z,5.82
2023-03-29T07:04:35.262Z,5.85
2023-03-29T07:07:07.695Z,5.89
2023-03-29T07:09:39.892Z,5.93
2023-03-29T07:12:11.217Z,5.98
2023-03-29T07:14:42.236Z,6.02
2023-03-29T07:17:13.533Z,6.08
2023-03-29T07:19:44.218Z,6.14
2023-03-29T07:22:15.271Z,6.20
2023-03-29T07:24:45.710Z,6.27
2023-03-29T07:27:16.809Z,6.34
2023-03-29T07:29:48.403Z,6.39
2023-03-29T07:32:18.728Z,6.45
2023-03-29T07:34:49.333Z,6.54
2023-03-29T07:37:19.675Z,6.64
2023-03-29T07:39:50.835Z,6.74
2023-03-29T07:42:21.206Z,6.84
2023-03-29T07:44:52.062Z,6.93
2023-03-29T07:47:23.206Z,7.02
2023-03-29T07:49:53.542Z,7.09
2023-03-29T07:52:24.154Z,7.16
2023-03-29T07:54:55.515Z,7.23
2023-03-29T07:57:27.456Z,7.30
2023-03-29T07:59:58.119Z,7.34
2023-03-29T08:02:29.111Z,7.39
2023-03-29T08:04:59.627Z,7.45
2023-03-29T08:07:29.943Z,7.55
2023-03-29T08:10:00.588Z,7.63
2023-03-29T08:12:31.172Z,7.72
2023-03-29T08:15:01.841Z,7.80
2023-03-29T08:17:32.187Z,7.88
2023-03-29T08:20:02.645Z,7.92
2023-03-29T08:22:34.148Z,7.97
2023-03-29T08:25:05.499Z,8.02
2023-03-29T08:27:37.561Z,8.04
2023-03-29T08:30:09.621Z,8.08
2023-03-29T08:32:40.884Z,8.11
2023-03-29T08:35:12.677Z,8.14
2023-03-29T08:37:43.010Z,8.17
2023-03-29T08:40:21.397Z,8.18
2023-03-29T08:43:18.412Z,8.21
2023-03-29T08:46:02.324Z,8.24
2023-03-29T08:48:36.165Z,8.29
2023-03-29T08:51:13.597Z,8.35
2023-03-29T08:53:48.136Z,8.38
2023-03-29T08:56:24.896Z,8.42
2023-03-29T08:58:57.636Z,8.46
2023-03-29T09:01:33.630Z,8.52
2023-03-29T09:04:09.591Z,8.56
2023-03-29T09:06:41.493Z,8.61
2023-03-29T09:09:18.544Z,8.68
2023-03-29T09:12:02.763Z,8.75
2023-03-29T09:14:51.137Z,8.82
2023-03-29T09:17:34.333Z,8.89
2023-03-29T09:20:12.477Z,8.95
2023-03-29T09:22:52.028Z,9.02
2023-03-29T09:25:27.421Z,9.11
2023-03-29T09:28:05.487Z,9.21
2023-03-29T09:30:41.537Z,9.30
2023-03-29T09:33:21.016Z,9.37
2023-03-29T09:35:56.293Z,9.45
2023-03-29T09:38:27.350Z,9.53
2023-03-29T09:41:01.856Z,9.59
2023-03-29T09:43:36.592Z,9.66
2023-03-29T09:46:16.076Z,9.71
2023-03-29T09:48:48.334Z,9.78
2023-03-29T09:51:21.884Z,9.85
2023-03-29T09:53:52.773Z,9.92
2023-03-29T09:56:23.134Z,9.98
2023-03-29T09:58:53.485Z,10.03
2023-03-29T10:01:25.913Z,10.06
2023-03-29T10:03:57.959Z,10.08
2023-03-29T10:06:29.374Z,10.09
2023-03-29T10:09:00.114Z,10.08
2023-03-29T10:11:34.604Z,10.08
2023-03-29T10:14:07.394Z,10.06
2023-03-29T10:16:41.178Z,10.04
2023-03-29T10:19:25.289Z,10.05
2023-03-29T10:21:57.056Z,10.06
2023-03-29T10:24:28.720Z,10.07
2023-03-29T10:27:02.827Z,10.10
2023-03-29T10:29:39.669Z,10.16
2023-03-29T10:32:24.109Z,10.22
2023-03-29T10:34:55.688Z,10.22
2023-03-29T10:37:27.038Z,10.25
2023-03-29T10:39:57.539Z,10.25
2023-03-29T10:42:29.638Z,10.26
2023-03-29T10:45:01.704Z,10.28
2023-03-29T10:47:35.357Z,10.34
2023-03-29T10:50:10.366Z,10.45
2023-03-29T10:52:42.533Z,10.56
2023-03-29T10:55:15.385Z,10.66
2023-03-29T10:57:52.698Z,10.72
2023-03-29T11:00:29.263Z,10.78
2023-03-29T11:03:18.819Z,10.85
2023-03-29T11:05:57.392Z,10.89
2023-03-29T11:08:41.603Z,10.91
2023-03-29T11:11:30.236Z,10.94
2023-03-29T11:14:06.494Z,10.99
2023-03-29T11:16:46.916Z,11.05
2023-03-29T11:19:40.598Z,11.12
2023-03-29T11:22:17.516Z,11.19
2023-03-29T11:25:03.368Z,11.27
2023-03-29T11:27:42.184Z,11.38
2023-03-29T11:30:20.219Z,11.46
2023-03-29T11:33:00.648Z,11.54
2023-03-29T11:35:43.505Z,11.63
2023-03-29T11:38:23.472Z,11.74
2023-03-29T11:41:03.204Z,11.84
2023-03-29T11:43:39.776Z,11.90
2023-03-29T11:46:16.868Z,11.94
2023-03-29T11:48:53.947Z,12.01
2023-03-29T11:51:27.752Z,12.06
2023-03-29T11:54:08.955Z,12.08
2023-03-29T11:56:45.611Z,12.11
2023-03-29T11:59:23.615Z,12.11
2023-03-29T12:01:57.530Z,12.11
2023-03-29T12:04:33.878Z,12.10
2023-03-29T12:07:13.949Z,12.13
2023-03-29T12:09:52.154Z,12.17
2023-03-29T12:12:27.795Z,12.23
2023-03-29T12:15:04.936Z,12.28
2023-03-29T12:17:43.243Z,12.33
2023-03-29T12:20:23.361Z,12.37
2023-03-29T12:22:54.713Z,12.41
2023-03-29T12:25:29.924Z,12.44
2023-03-29T12:28:17.058Z,12.48
2023-03-29T12:31:02.252Z,12.54
2023-03-29T12:33:43.709Z,12.61
2023-03-29T12:36:32.570Z,12.68
2023-03-29T12:39:03.700Z,12.74
2023-03-29T12:41:41.654Z,12.81
2023-03-29T12:44:17.550Z,12.84
2023-03-29T12:46:48.079Z,12.86
2023-03-29T12:49:28.200Z,12.86
2023-03-29T12:52:00.956Z,12.84
2023-03-29T12:54:34.180Z,12.79
2023-03-29T12:57:20.875Z,12.76
2023-03-29T12:59:52.458Z,12.71
2023-03-29T13:02:37.647Z,12.69
2023-03-29T13:05:36.192Z,12.67
2023-03-29T13:08:27.900Z,12.66
2023-03-29T13:10:58.717Z,12.69
2023-03-29T13:13:32.128Z,12.74
2023-03-29T13:16:14.970Z,12.79
2023-03-29T13:19:01.251Z,12.83
2023-03-29T13:21:41.166Z,12.85
2023-03-29T13:24:30.039Z,12.88
2023-03-29T13:27:07.345Z,12.91
2023-03-29T13:29:54.103Z,12.94
2023-03-29T13:32:38.218Z,12.97
2023-03-29T13:35:22.421Z,13.00
2023-03-29T13:38:05.124Z,13.04
2023-03-29T13:40:46.834Z,13.05
2023-03-29T13:43:31.695Z,13.06
2023-03-29T13:46:23.099Z,13.07
2023-03-29T13:48:59.376Z,13.08
2023-03-29T13:51:42.796Z,13.09
2023-03-29T13:54:27.778Z,13.10
2023-03-29T13:57:07.602Z,13.10
2023-03-29T13:59:44.158Z,13.09
2023-03-29T14:02:22.870Z,13.07
2023-03-29T14:04:55.928Z,13.04
2023-03-29T14:07:29.676Z,13.01
2023-03-29T14:10:01.407Z,12.97
2023-03-29T14:12:39.511Z,12.94
2023-03-29T14:15:23.203Z,12.89
2023-03-29T14:18:00.252Z,12.84
2023-03-29T14:20:31.633Z,12.78
2023-03-29T14:23:02.042Z,12.73
2023-03-29T14:25:32.883Z,12.67
2023-03-29T14:28:03.376Z,12.63
2023-03-29T14:30:34.343Z,12.58
2023-03-29T14:33:05.299Z,12.53
2023-03-29T14:35:37.902Z,12.51
2023-03-29T14:38:13.335Z,12.46
2023-03-29T14:40:46.311Z,12.42
2023-03-29T14:43:20.264Z,12.39
2023-03-29T14:45:51.577Z,12.38
2023-03-29T14:48:23.275Z,12.37
2023-03-29T14:50:54.241Z,12.32
2023-03-29T14:53:26.022Z,12.28
2023-03-29T14:55:57.755Z,12.23
2023-03-29T14:58:33.127Z,12.17
2023-03-29T15:01:15.045Z,12.10
2023-03-29T15:03:54.978Z,12.05
2023-03-29T15:06:27.534Z,12.01
2023-03-29T15:09:06.011Z,11.98
2023-03-29T15:11:39.696Z,11.95
2023-03-29T15:14:16.921Z,11.93
2023-03-29T15:16:49.022Z,11.92
2023-03-29T15:19:22.187Z,11.90
2023-03-29T15:21:53.246Z,11.87
2023-03-29T15:24:29.225Z,11.84
2023-03-29T15:27:05.686Z,11.83
2023-03-29T15:29:43.830Z,11.84
2023-03-29T15:32:23.894Z,11.86
2023-03-29T15:35:02.751Z,11.88
2023-03-29T15:37:33.629Z,11.89
2023-03-29T15:40:10.876Z,11.91
2023-03-29T15:42:41.421Z,11.92
2023-03-29T15:45:18.142Z,11.94
2023-03-29T15:47:48.748Z,11.95
2023-03-29T15:50:19.974Z,11.95
2023-03-29T15:52:50.382Z,11.95
2023-03-29T15:55:20.766Z,11.93
2023-03-29T15:57:54.479Z,11.91
2023-03-29T16:00:25.764Z,11.90
2023-03-29T16:02:57.904Z,11.89
2023-03-29T16:05:28.289Z,11.89
2023-03-29T16:07:58.644Z,11.90
2023-03-29T16:10:28.944Z,11.89
2023-03-29T16:12:59.879Z,11.88
2023-03-29T16:15:31.836Z,11.86
2023-03-29T16:18:02.551Z,11.87
2023-03-29T16:20:33.265Z,11.86
2023-03-29T16:23:08.771Z,11.85
2023-03-29T16:25:41.013Z,11.85
2023-03-29T16:28:14.148Z,11.85
2023-03-29T16:30:52.874Z,11.83
2023-03-29T16:33:23.742Z,11.80
2023-03-29T16:35:54.270Z,11.81
2023-03-29T16:38:26.026Z,11.82
2023-03-29T16:40:57.115Z,11.81
2023-03-29T16:43:28.191Z,11.78
2023-03-29T16:46:09.638Z,11.76
2023-03-29T16:48:40.661Z,11.72
2023-03-29T16:51:12.191Z,11.70
2023-03-29T16:53:43.066Z,11.67
2023-03-29T16:56:14.725Z,11.65
2023-03-29T16:58:45.455Z,11.62
2023-03-29T17:01:17.921Z,11.59
2023-03-29T17:03:48.564Z,11.56
2023-03-29T17:06:19.487Z,11.54
2023-03-29T17:08:50.506Z,11.53
2023-03-29T17:11:23.066Z,11.50
2023-03-29T17:13:54.113Z,11.47
2023-03-29T17:16:24.789Z,11.46
2023-03-29T17:18:55.262Z,11.46
2023-03-29T17:21:26.357Z,11.43
2023-03-29T17:23:56.854Z,11.41
2023-03-29T17:26:28.207Z,11.40
2023-03-29T17:28:58.566Z,11.37
2023-03-29T17:31:29.222Z,11.33
2023-03-29T17:34:00.193Z,11.30
2023-03-29T17:36:33.721Z,11.28
2023-03-29T17:39:05.210Z,11.23
2023-03-29T17:41:35.597Z,11.19
2023-03-29T17:44:06.000Z,11.16
2023-03-29T17:46:37.822Z,11.13
2023-03-29T17:49:08.275Z,11.11
2023-03-29T17:51:39.027Z,11.10
2023-03-29T17:54:09.451Z,11.07
2023-03-29T17:56:40.075Z,11.05
2023-03-29T17:59:10.822Z,11.03
2023-03-29T18:01:41.726Z,11.00
2023-03-29T18:04:12.363Z,10.99
2023-03-29T18:06:43.542Z,10.96
2023-03-29T18:09:14.760Z,10.96
2023-03-29T18:11:45.309Z,10.93
2023-03-29T18:14:16.065Z,10.92
2023-03-29T18:16:46.780Z,10.91
2023-03-29T18:19:17.425Z,10.90
2023-03-29T18:21:47.767Z,10.87
2023-03-29T18:24:18.101Z,10.86
2023-03-29T18:26:48.449Z,10.83
2023-03-29T18:29:18.888Z,10.81
2023-03-29T18:31:49.320Z,10.78
2023-03-29T18:34:22.171Z,10.77
2023-03-29T18:36:53.710Z,10.76
2023-03-29T18:39:24.065Z,10.75
2023-03-29T18:41:54.740Z,10.75
2023-03-29T18:44:27.610Z,10.75
2023-03-29T18:46:57.981Z,10.74
2023-03-29T18:49:28.415Z,10.72
2023-03-29T18:51:58.785Z,10.73
2023-03-29T18:54:30.006Z,10.71
2023-03-29T18:57:00.460Z,10.71
2023-03-29T18:59:31.423Z,10.70
2023-03-29T19:02:02.563Z,10.68
2023-03-29T19:04:33.268Z,10.65
2023-03-29T19:07:03.693Z,10.62
2023-03-29T19:09:34.167Z,10.59
2023-03-29T19:12:04.734Z,10.56
2023-03-29T19:14:35.194Z,10.53
2023-03-29T19:17:06.239Z,10.51
2023-03-29T19:19:37.826Z,10.48
2023-03-29T19:22:08.349Z,10.44
2023-03-29T19:24:39.322Z,10.41
2023-03-29T19:27:12.516Z,10.39
2023-03-29T19:29:43.409Z,10.35
2023-03-29T19:32:13.702Z,10.32
2023-03-29T19:34:44.006Z,10.29
2023-03-29T19:37:15.618Z,10.27
2023-03-29T19:39:46.462Z,10.25
2023-03-29T19:42:16.770Z,10.23
2023-03-29T19:44:47.079Z,10.24
2023-03-29T19:47:17.554Z,10.21
2023-03-29T19:49:47.865Z,10.19
2023-03-29T19:52:18.200Z,10.18
2023-03-29T19:54:48.833Z,10.16
2023-03-29T19:57:19.215Z,10.13
2023-03-29T19:59:50.027Z,10.14
2023-03-29T20:02:20.529Z,10.12
2023-03-29T20:04:52.127Z,10.12
2023-03-29T20:07:23.187Z,10.11
2023-03-29T20:09:53.487Z,10.09
2023-03-29T20:12:24.108Z,10.09
2023-03-29T20:14:54.781Z,10.09
2023-03-29T20:17:25.584Z,10.09
2023-03-29T20:19:56.193Z,10.08
2023-03-29T20:22:27.488Z,10.08
2023-03-29T20:24:58.040Z,10.09
2023-03-29T20:27:29.389Z,10.08
2023-03-29T20:29:59.976Z,10.09
2023-03-29T20:32:30.780Z,10.09
2023-03-29T20:35:01.580Z,10.10
2023-03-29T20:37:32.814Z,10.10
2023-03-29T20:40:05.257Z,10.11
2023-03-29T20:42:38.277Z,10.12
2023-03-29T20:45:18.685Z,10.13
2023-03-29T20:47:57.339Z,10.12
2023-03-29T20:50:28.911Z,10.11
2023-03-29T20:53:02.174Z,10.09
2023-03-29T20:55:34.051Z,10.08
2023-03-29T20:58:05.303Z,10.07
2023-03-29T21:00:37.598Z,10.04
2023-03-29T21:03:08.622Z,10.01
2023-03-29T21:05:39.574Z,9.99
2023-03-29T21:08:09.894Z,9.98
2023-03-29T21:10:42.559Z,9.93
2023-03-29T21:13:15.208Z,9.95
2023-03-29T21:15:46.543Z,9.93
2023-03-29T21:18:17.049Z,9.90
2023-03-29T21:20:47.660Z,9.87
2023-03-29T21:23:18.863Z,9.88
2023-03-29T21:25:50.100Z,9.89
2023-03-29T21:28:21.072Z,9.90
2023-03-29T21:30:51.410Z,9.91
2023-03-29T21:33:22.058Z,9.91
2023-03-29T21:35:52.859Z,9.92
2023-03-29T21:38:23.357Z,9.93
2023-03-29T21:40:53.725Z,9.94
2023-03-29T21:43:24.182Z,9.94
2023-03-29T21:45:54.464Z,9.94
2023-03-29T21:48:24.884Z,9.94
2023-03-29T21:50:56.094Z,9.94
2023-03-29T21:53:27.002Z,9.94
2023-03-29T21:55:57.507Z,9.95
2023-03-29T21:58:28.643Z,9.96
2023-03-29T22:00:59.125Z,9.96
2023-03-29T22:03:30.227Z,9.96
2023-03-29T22:06:02.806Z,9.96
2023-03-29T22:08:33.990Z,9.96
2023-03-29T22:11:08.644Z,9.97
2023-03-29T22:13:39.910Z,9.95
2023-03-29T22:16:13.825Z,9.94
2023-03-29T22:18:46.936Z,9.93
2023-03-29T22:21:19.254Z,9.92
2023-03-29T22:23:51.743Z,9.90
2023-03-29T22:26:24.746Z,9.89
2023-03-29T22:28:56.107Z,9.89
2023-03-29T22:31:28.201Z,9.88
2023-03-29T22:34:00.646Z,9.88
2023-03-29T22:36:32.342Z,9.88
2023-03-29T22:39:02.680Z,9.87
2023-03-29T22:41:33.533Z,9.86
2023-03-29T22:44:04.161Z,9.85
2023-03-29T22:46:34.957Z,9.83
2023-03-29T22:49:06.063Z,9.81
2023-03-29T22:51:36.426Z,9.79
2023-03-29T22:54:07.127Z,9.77
2023-03-29T22:56:37.455Z,9.77
2023-03-29T22:59:08.186Z,9.77
2023-03-29T23:01:38.754Z,9.76
2023-03-29T23:04:09.378Z,9.76
2023-03-29T23:06:39.763Z,9.76
2023-03-29T23:09:10.508Z,9.75
2023-03-29T23:11:40.945Z,9.75
2023-03-29T23:14:11.567Z,9.74
2023-03-29T23:16:42.296Z,9.73
2023-03-29T23:19:12.730Z,9.71
2023-03-29T23:21:43.081Z,9.69
2023-03-29T23:24:13.401Z,9.69
2023-03-29T23:26:44.078Z,9.68
2023-03-29T23:29:15.348Z,9.67
2023-03-29T23:31:47.753Z,9.65
2023-03-29T23:34:18.168Z,9.63
2023-03-29T23:36:48.492Z,9.61
2023-03-29T23:39:18.756Z,9.59
2023-03-29T23:41:49.114Z,9.57
2023-03-29T23:44:19.416Z,9.55
2023-03-29T23:46:49.720Z,9.54
2023-03-29T23:49:22.962Z,9.53
2023-03-29T23:51:53.311Z,9.53
2023-03-29T23:54:23.936Z,9.51
2023-03-29T23:56:54.277Z,9.48
2023-03-29T23:59:29.711Z,9.46
